Time;durP1;ratioP1;P1;durP2;ratioP2;P2;SDS_P1;SDS_P2;PMS_P1;PMS_P2;Temp;Humidity;BMP_temperature;BMP_pressure;BME280_temperature;BME280_humidity;BME280_pressure;Samples;Min_cycle;Max_cycle;Signal;HPM_P1;HPM_P2
2021/12/11 00:04:56;;;;;;;28.27;14.70;;;2.30;99.90;;;;;;6745549;88;20639;-78
2021/12/11 00:15:11;;;;;;;31.15;15.73;;;2.20;99.90;;;;;;6739409;88;20750;-78
2021/12/11 00:25:16;;;;;;;30.27;15.52;;;2.20;99.90;;;;;;6744129;88;20215;-78
2021/12/11 00:35:20;;;;;;;32.70;14.60;;;2.30;99.90;;;;;;6742359;88;20205;-77
2021/12/11 00:45:24;;;;;;;33.55;14.25;;;2.30;99.90;;;;;;6744322;88;20181;-77
2021/12/11 00:55:30;;;;;;;35.45;14.95;;;2.30;99.90;;;;;;6730788;88;20193;-77
2021/12/11 01:05:41;;;;;;;31.33;15.50;;;2.30;99.90;;;;;;6729393;88;20257;-78
2021/12/11 01:15:55;;;;;;;34.65;16.27;;;2.40;99.90;;;;;;6731265;88;20184;-77
2021/12/11 01:25:57;;;;;;;35.13;16.48;;;2.40;99.90;;;;;;6744667;88;20196;-78
2021/12/11 01:35:58;;;;;;;40.25;17.75;;;2.60;99.90;;;;;;6743884;88;20193;-77
2021/12/11 01:46:01;;;;;;;43.53;19.33;;;2.50;99.90;;;;;;6744230;88;20731;-77
2021/12/11 01:56:09;;;;;;;43.65;19.42;;;2.50;99.90;;;;;;6740687;88;20237;-77
2021/12/11 02:06:11;;;;;;;45.45;19.23;;;2.60;99.90;;;;;;6746259;88;20206;-78
2021/12/11 02:16:19;;;;;;;47.17;20.23;;;2.60;99.90;;;;;;6746838;88;20206;-77
2021/12/11 02:26:20;;;;;;;47.75;19.42;;;2.60;99.90;;;;;;6749214;88;20194;-78
2021/12/11 02:36:28;;;;;;;54.58;20.85;;;2.70;99.90;;;;;;6756829;88;20216;-78
2021/12/11 02:46:39;;;;;;;54.58;20.60;;;2.70;99.90;;;;;;6745677;88;20579;-77
2021/12/11 02:56:45;;;;;;;52.95;20.83;;;2.70;99.90;;;;;;6747540;76;20205;-75
2021/12/11 03:06:49;;;;;;;53.47;22.13;;;2.70;99.90;;;;;;6735392;88;20746;-76
2021/12/11 03:16:50;;;;;;;57.13;22.52;;;2.70;99.90;;;;;;6728792;88;20184;-76
2021/12/11 03:26:53;;;;;;;53.20;22.73;;;2.80;99.90;;;;;;6731616;88;20197;-76
2021/12/11 03:36:55;;;;;;;55.60;22.00;;;2.90;99.90;;;;;;6727600;88;20193;-76
2021/12/11 03:46:56;;;;;;;58.33;23.30;;;2.90;99.90;;;;;;6723825;88;20884;-75
2021/12/11 03:56:58;;;;;;;61.88;24.27;;;2.90;99.90;;;;;;6725869;88;20181;-76
2021/12/11 04:07:00;;;;;;;60.58;22.70;;;2.90;99.90;;;;;;6726443;88;20212;-76
2021/12/11 04:17:03;;;;;;;54.58;23.52;;;3.00;99.90;;;;;;6732624;88;20188;-76
2021/12/11 04:27:07;;;;;;;55.28;23.27;;;3.00;99.90;;;;;;6725567;88;20276;-75
2021/12/11 04:37:19;;;;;;;53.45;23.42;;;3.10;99.90;;;;;;6732540;88;20242;-76
2021/12/11 04:47:34;;;;;;;54.65;22.77;;;3.20;99.90;;;;;;6724932;88;20586;-76
2021/12/11 04:57:55;;;;;;;56.25;22.98;;;3.20;99.90;;;;;;6731141;88;20709;-75
2021/12/11 05:08:12;;;;;;;59.10;23.17;;;3.20;99.90;;;;;;6727302;88;20770;-75
2021/12/11 05:18:16;;;;;;;48.80;21.55;;;3.20;99.90;;;;;;6731900;88;20279;-76
2021/12/11 05:28:17;;;;;;;55.12;22.23;;;3.20;99.90;;;;;;6725963;88;20249;-76
2021/12/11 05:38:20;;;;;;;58.50;23.90;;;3.10;99.90;;;;;;6728424;88;20215;-76
2021/12/11 05:48:22;;;;;;;56.17;22.02;;;3.20;99.90;;;;;;6730301;88;20215;-76
2021/12/11 05:58:46;;;;;;;60.30;22.00;;;3.20;99.90;;;;;;6733116;88;20312;-75
2021/12/11 06:08:47;;;;;;;49.30;19.70;;;3.10;99.90;;;;;;6730479;88;20267;-76
2021/12/11 06:18:48;;;;;;;52.30;19.20;;;3.10;99.90;;;;;;6725118;88;20246;-76
2021/12/11 06:28:49;;;;;;;43.17;17.87;;;3.10;99.90;;;;;;6728615;88;20321;-76
2021/12/11 06:38:53;;;;;;;41.33;16.50;;;3.20;99.90;;;;;;6728613;88;20891;-76
2021/12/11 06:48:54;;;;;;;37.30;15.30;;;3.30;99.90;;;;;;6725866;88;20242;-75
2021/12/11 06:58:55;;;;;;;38.20;15.13;;;3.10;99.90;;;;;;6730498;88;20708;-76
2021/12/11 07:08:57;;;;;;;32.40;13.93;;;3.20;99.90;;;;;;6737474;88;20197;-76
2021/12/11 07:18:58;;;;;;;36.22;14.45;;;3.20;99.90;;;;;;6730106;88;20267;-76
2021/12/11 07:29:07;;;;;;;34.90;12.77;;;3.30;99.90;;;;;;6728004;88;20633;-76
2021/12/11 07:39:11;;;;;;;30.95;12.93;;;3.40;99.90;;;;;;6731441;88;20263;-76
2021/12/11 07:49:12;;;;;;;31.17;12.88;;;3.30;99.90;;;;;;6733235;88;20211;-75
2021/12/11 07:59:14;;;;;;;28.45;11.98;;;3.40;99.90;;;;;;6728549;88;20197;-75
2021/12/11 08:09:17;;;;;;;28.25;12.43;;;3.50;99.90;;;;;;6724617;88;20710;-76
2021/12/11 08:19:21;;;;;;;28.45;11.95;;;3.80;99.90;;;;;;6730007;88;20177;-77
2021/12/11 08:29:22;;;;;;;29.15;12.23;;;3.90;99.90;;;;;;6735890;88;20210;-76
2021/12/11 08:39:25;;;;;;;33.22;12.63;;;4.20;99.90;;;;;;6734001;88;20268;-76
2021/12/11 08:49:29;;;;;;;31.45;12.82;;;4.10;99.90;;;;;;6732429;88;20234;-76
2021/12/11 08:59:31;;;;;;;26.67;11.35;;;4.30;99.90;;;;;;6766370;77;20239;-77
2021/12/11 09:09:44;;;;;;;24.30;11.12;;;4.10;99.90;;;;;;6772113;87;20312;-76
2021/12/11 09:19:54;;;;;;;28.45;12.13;;;4.20;99.90;;;;;;6776772;87;20689;-77
2021/12/11 09:30:00;;;;;;;30.10;12.63;;;4.20;99.90;;;;;;6764533;87;20284;-76
2021/12/11 09:40:15;;;;;;;;;;;4.20;99.90;;;;;;6766659;87;20217;-75
2021/12/11 09:50:20;;;;;;;29.67;12.60;;;4.10;99.90;;;;;;6763200;87;20065;-75
2021/12/11 10:00:29;;;;;;;34.87;13.33;;;3.90;99.90;;;;;;6766315;87;20687;-75
2021/12/11 10:10:30;;;;;;;33.95;14.75;;;3.90;99.90;;;;;;6766161;87;20609;-75
2021/12/11 10:20:46;;;;;;;31.80;13.07;;;3.90;99.90;;;;;;6768464;87;20199;-76
2021/12/11 10:30:54;;;;;;;27.95;12.77;;;3.90;99.90;;;;;;6772713;87;20237;-76
2021/12/11 10:41:00;;;;;;;29.60;12.02;;;3.90;99.90;;;;;;6772047;87;20333;-75
2021/12/11 10:51:07;;;;;;;32.53;12.97;;;3.90;99.90;;;;;;6782013;87;20180;-77
2021/12/11 11:01:13;;;;;;;29.08;11.50;;;4.00;99.90;;;;;;6764993;87;20184;-76
2021/12/11 11:11:18;;;;;;;25.07;11.23;;;4.10;99.90;;;;;;6767601;87;20316;-76
2021/12/11 11:21:29;;;;;;;24.67;10.73;;;4.20;99.90;;;;;;6765924;87;20336;-76
2021/12/11 11:31:36;;;;;;;25.37;10.75;;;4.40;99.90;;;;;;6765220;87;20715;-76
2021/12/11 11:41:43;;;;;;;22.33;10.07;;;4.60;99.90;;;;;;6758865;87;20221;-76
2021/12/11 11:51:54;;;;;;;24.67;9.73;;;4.60;99.90;;;;;;6767966;87;20223;-76
2021/12/11 12:02:04;;;;;;;22.00;10.20;;;4.70;99.90;;;;;;6760915;87;20207;-76
2021/12/11 12:12:06;;;;;;;21.23;9.52;;;5.00;99.90;;;;;;6759444;87;20182;-75
2021/12/11 12:22:09;;;;;;;25.27;10.15;;;5.00;99.90;;;;;;6752228;87;20185;-74
2021/12/11 12:32:22;;;;;;;21.75;9.50;;;5.10;99.90;;;;;;6758333;87;20310;-74
2021/12/11 12:42:37;;;;;;;21.87;9.93;;;5.30;99.90;;;;;;6760548;87;20686;-75
2021/12/11 12:52:43;;;;;;;16.40;6.23;;;5.30;99.90;;;;;;6750026;88;20708;-75
2021/12/11 13:02:47;;;;;;;10.97;5.00;;;5.60;99.90;;;;;;6751377;88;20223;-75
2021/12/11 13:12:49;;;;;;;8.93;4.10;;;5.90;99.90;;;;;;6750695;88;20179;-74
2021/12/11 13:22:51;;;;;;;14.00;4.37;;;6.10;99.90;;;;;;6751916;87;21082;-75
2021/12/11 13:32:51;;;;;;;15.05;4.37;;;6.20;99.90;;;;;;6767513;87;20703;-75
2021/12/11 13:42:53;;;;;;;9.60;3.92;;;6.20;99.90;;;;;;6769071;87;20220;-75
2021/12/11 13:52:54;;;;;;;10.95;3.92;;;6.30;99.90;;;;;;6773762;87;20190;-76
2021/12/11 14:02:54;;;;;;;9.67;3.63;;;6.10;99.90;;;;;;6769400;87;20223;-76
2021/12/11 14:12:56;;;;;;;9.40;3.92;;;6.10;99.90;;;;;;6770191;87;20643;-77
2021/12/11 14:23:02;;;;;;;12.52;4.18;;;6.00;99.90;;;;;;6769884;87;20228;-77
2021/12/11 14:33:03;;;;;;;11.60;3.90;;;5.80;99.90;;;;;;6770705;87;20561;-74
2021/12/11 14:43:04;;;;;;;9.48;3.70;;;5.80;99.90;;;;;;6772572;87;20247;-77
2021/12/11 14:53:07;;;;;;;8.18;3.78;;;5.90;99.90;;;;;;6783165;76;20172;-77
2021/12/11 15:03:08;;;;;;;8.95;3.53;;;6.00;99.90;;;;;;6739754;88;20230;-77
2021/12/11 15:13:09;;;;;;;11.63;3.40;;;6.00;99.90;;;;;;6737148;88;20188;-77
2021/12/11 15:23:12;;;;;;;11.18;3.45;;;6.00;99.90;;;;;;6749855;87;20701;-76
2021/12/11 15:33:13;;;;;;;12.00;3.22;;;6.10;99.90;;;;;;6750430;87;20251;-77
2021/12/11 15:43:20;;;;;;;13.95;3.75;;;6.00;99.90;;;;;;6752270;87;20618;-76
2021/12/11 15:53:23;;;;;;;11.95;3.15;;;6.10;99.90;;;;;;6744606;88;20227;-77
2021/12/11 16:03:23;;;;;;;11.02;3.08;;;6.10;99.90;;;;;;6742483;88;20225;-77
2021/12/11 16:13:24;;;;;;;14.98;3.00;;;6.10;99.90;;;;;;6745492;88;20183;-76
2021/12/11 16:23:29;;;;;;;11.65;3.20;;;6.00;99.90;;;;;;6752691;88;20180;-76
2021/12/11 16:33:30;;;;;;;12.25;3.03;;;6.00;99.90;;;;;;6746862;88;20302;-78
2021/12/11 16:43:31;;;;;;;11.05;2.80;;;5.90;99.90;;;;;;6757384;87;20298;-77
2021/12/11 16:53:34;;;;;;;35.83;15.15;;;5.80;99.90;;;;;;6747849;88;20228;-75
2021/12/11 17:03:36;;;;;;;60.92;20.15;;;5.80;99.90;;;;;;6743424;87;20289;-76
2021/12/11 17:13:37;;;;;;;31.98;9.18;;;5.80;99.90;;;;;;6751402;87;20203;-77
2021/12/11 17:23:38;;;;;;;14.43;4.78;;;5.80;99.90;;;;;;6749902;88;20199;-76
2021/12/11 17:33:39;;;;;;;11.32;4.55;;;5.80;99.90;;;;;;6748883;88;20213;-74
2021/12/11 17:43:40;;;;;;;10.43;4.10;;;5.80;99.90;;;;;;6752687;87;20770;-77
2021/12/11 17:53:41;;;;;;;13.82;4.90;;;5.90;99.90;;;;;;6751064;87;20500;-76
2021/12/11 18:03:43;;;;;;;15.43;5.37;;;5.80;99.90;;;;;;6752529;87;20355;-75
2021/12/11 18:13:51;;;;;;;13.30;4.22;;;5.80;99.90;;;;;;6761119;88;20205;-76
2021/12/11 18:23:52;;;;;;;10.70;4.05;;;5.70;99.90;;;;;;6755542;88;20214;-76
2021/12/11 18:33:55;;;;;;;9.95;4.35;;;5.70;99.90;;;;;;6749472;88;20260;-76
2021/12/11 18:43:57;;;;;;;11.30;3.47;;;5.60;99.90;;;;;;6745449;88;20213;-77
2021/12/11 18:54:04;;;;;;;7.37;3.12;;;5.50;99.90;;;;;;6758942;87;20211;-75
2021/12/11 19:04:08;;;;;;;;;;;5.30;99.90;;;;;;6755437;88;20188;-76
2021/12/11 19:14:09;;;;;;;9.98;3.20;;;5.10;99.90;;;;;;6759527;88;20056;-76
2021/12/11 19:24:18;;;;;;;7.20;3.58;;;5.00;99.90;;;;;;6749385;88;20223;-76
2021/12/11 19:34:20;;;;;;;11.27;3.80;;;5.00;99.90;;;;;;6750986;88;20615;-76
2021/12/11 19:44:21;;;;;;;7.60;3.15;;;4.70;99.90;;;;;;6757872;88;20206;-75
2021/12/11 19:54:25;;;;;;;7.68;3.30;;;4.70;99.90;;;;;;6752874;87;20672;-77
2021/12/11 20:04:26;;;;;;;8.88;3.55;;;4.40;99.90;;;;;;6749979;88;20203;-76
2021/12/11 20:14:28;;;;;;;10.10;3.72;;;4.20;99.90;;;;;;6758105;88;20683;-76
2021/12/11 20:24:31;;;;;;;16.40;3.28;;;4.00;99.90;;;;;;6754270;88;20860;-76
2021/12/11 20:34:32;;;;;;;13.40;3.87;;;4.00;99.90;;;;;;6759134;88;20196;-76
2021/12/11 20:44:43;;;;;;;9.90;3.58;;;3.90;99.90;;;;;;6760256;88;20203;-76
2021/12/11 21:04:56;;;;;;;8.93;4.43;;;3.80;99.90;;;;;;6677930;88;20690;-75
2021/12/11 21:15:00;;;;;;;12.63;4.62;;;3.80;99.90;;;;;;6675402;89;20225;-75
2021/12/11 21:25:11;;;;;;;12.25;5.10;;;3.50;99.90;;;;;;6676403;89;20245;-74
2021/12/11 21:35:12;;;;;;;9.95;4.80;;;3.30;99.90;;;;;;6668735;89;20250;-75
2021/12/11 21:45:19;;;;;;;8.80;4.03;;;3.10;99.90;;;;;;6668601;89;20192;-74
2021/12/11 21:55:24;;;;;;;10.63;4.15;;;3.10;99.90;;;;;;6673021;89;20251;-76
2021/12/11 22:05:44;;;;;;;11.90;4.22;;;3.10;99.90;;;;;;6687621;89;20667;-76
2021/12/11 22:15:55;;;;;;;11.30;3.80;;;3.00;99.90;;;;;;6670892;89;20213;-75
2021/12/11 22:26:04;;;;;;;11.88;4.32;;;3.10;99.90;;;;;;6669342;88;20291;-75
2021/12/11 22:36:06;;;;;;;9.10;3.33;;;3.20;99.90;;;;;;6673531;88;20242;-75
2021/12/11 22:46:07;;;;;;;12.43;3.87;;;3.20;99.90;;;;;;6676784;88;20308;-75
2021/12/11 22:56:09;;;;;;;13.40;3.28;;;3.10;99.90;;;;;;6680610;89;20751;-75
2021/12/11 23:06:11;;;;;;;11.10;3.78;;;3.20;99.90;;;;;;6677939;89;20187;-75
2021/12/11 23:16:34;;;;;;;10.75;3.80;;;3.10;99.90;;;;;;6677465;89;20204;-75
2021/12/11 23:26:42;;;;;;;9.88;4.03;;;3.00;99.90;;;;;;6676275;89;20645;-74
2021/12/11 23:36:51;;;;;;;9.35;3.50;;;2.90;99.90;;;;;;6675705;88;20262;-75
2021/12/11 23:46:58;;;;;;;8.85;3.58;;;3.00;99.90;;;;;;6675648;89;20203;-75
2021/12/11 23:57:14;;;;;;;10.20;3.37;;;3.00;99.90;;;;;;6675533;88;20207;-75
